createdAt,value
2019-04-16T00:01:50.826Z,10.32
2019-04-16T00:04:38.135Z,10.26
2019-04-16T00:07:25.903Z,10.22
2019-04-16T00:10:23.901Z,10.17
2019-04-16T00:13:08.134Z,10.14
2019-04-16T00:15:40.942Z,10.10
2019-04-16T00:18:09.267Z,10.06
2019-04-16T00:20:48.855Z,10.02
2019-04-16T00:23:27.217Z,10.01
2019-04-16T00:25:57.867Z,9.98
2019-04-16T00:28:30.471Z,9.95
2019-04-16T00:30:59.265Z,9.93
2019-04-16T00:33:29.163Z,9.92
2019-04-16T00:35:58.979Z,9.89
2019-04-16T00:38:40.053Z,9.86
2019-04-16T00:41:01.369Z,9.81
2019-04-16T00:43:31.669Z,9.77
2019-04-16T00:46:01.437Z,9.74
2019-04-16T00:48:31.410Z,9.71
2019-04-16T00:51:01.324Z,9.69
2019-04-16T00:53:29.793Z,9.64
2019-04-16T00:55:58.084Z,9.62
2019-04-16T00:58:28.006Z,9.59
2019-04-16T01:00:57.666Z,9.54
2019-04-16T01:03:27.325Z,9.52
2019-04-16T01:05:57.143Z,9.47
2019-04-16T01:08:26.820Z,9.31
2019-04-16T01:10:56.636Z,9.32
2019-04-16T01:13:26.933Z,9.30
2019-04-16T01:15:56.861Z,9.24
2019-04-16T01:18:26.707Z,9.20
2019-04-16T01:20:56.604Z,9.18
2019-04-16T01:23:26.744Z,9.14
2019-04-16T01:25:56.446Z,9.15
2019-04-16T01:28:31.484Z,9.10
2019-04-16T01:31:25.046Z,9.05
2019-04-16T01:34:15.287Z,9.00
2019-04-16T01:36:58.845Z,9.00
2019-04-16T01:39:29.245Z,9.00
2019-04-16T01:41:58.923Z,8.99
2019-04-16T01:44:29.626Z,9.00
2019-04-16T01:47:03.340Z,8.97
2019-04-16T01:49:31.088Z,8.96
2019-04-16T01:52:01.007Z,8.94
2019-04-16T01:54:31.852Z,8.94
2019-04-16T01:57:08.513Z,8.91
2019-04-16T01:59:38.026Z,8.85
2019-04-16T02:02:08.724Z,8.80
2019-04-16T02:04:41.942Z,8.80
2019-04-16T02:07:11.862Z,8.76
2019-04-16T02:09:41.913Z,8.72
2019-04-16T02:12:13.414Z,8.69
2019-04-16T02:14:43.184Z,8.69
2019-04-16T02:17:13.762Z,8.72
2019-04-16T02:19:44.495Z,8.70
2019-04-16T02:22:14.421Z,8.70
2019-04-16T02:24:44.071Z,8.68
2019-04-16T02:27:13.761Z,8.68
2019-04-16T02:29:43.501Z,8.60
2019-04-16T02:32:13.174Z,8.54
2019-04-16T02:34:43.013Z,8.51
2019-04-16T02:37:13.892Z,8.48
2019-04-16T02:39:48.773Z,8.46
2019-04-16T02:42:15.255Z,8.41
2019-04-16T02:47:21.267Z,8.37
2019-04-16T02:49:56.417Z,8.33
2019-04-16T02:52:37.556Z,8.27
2019-04-16T02:55:32.454Z,8.23
2019-04-16T02:58:10.295Z,8.19
2019-04-16T03:01:01.200Z,8.16
2019-04-16T03:03:50.083Z,8.11
2019-04-16T03:06:20.101Z,8.09
2019-04-16T03:08:50.608Z,8.04
2019-04-16T03:11:20.476Z,8.03
2019-04-16T03:13:52.427Z,8.00
2019-04-16T03:16:56.311Z,7.94
2019-04-16T03:19:30.878Z,7.88
2019-04-16T03:22:02.224Z,7.82
2019-04-16T03:24:32.145Z,7.75
2019-04-16T03:27:04.656Z,7.73
2019-04-16T03:29:33.964Z,7.71
2019-04-16T03:32:04.640Z,7.68
2019-04-16T03:34:34.564Z,7.68
2019-04-16T03:37:05.347Z,7.64
2019-04-16T03:39:35.290Z,7.66
2019-04-16T03:42:05.782Z,7.64
2019-04-16T03:44:37.286Z,7.64
2019-04-16T03:47:07.092Z,7.65
2019-04-16T03:49:36.764Z,7.58
2019-04-16T03:52:08.434Z,7.55
2019-04-16T03:54:38.810Z,7.53
2019-04-16T03:57:09.683Z,7.49
2019-04-16T03:59:40.687Z,7.46
2019-04-16T04:02:10.515Z,7.42
2019-04-16T04:04:40.268Z,7.38
2019-04-16T04:07:12.019Z,7.36
2019-04-16T04:09:41.315Z,7.33
2019-04-16T04:12:13.318Z,7.31
2019-04-16T04:14:42.338Z,7.28
2019-04-16T04:17:12.299Z,7.25
2019-04-16T04:19:43.534Z,7.24
2019-04-16T04:22:13.704Z,7.17
2019-04-16T04:24:43.579Z,7.13
2019-04-16T04:27:18.671Z,7.11
2019-04-16T04:29:46.618Z,7.09
2019-04-16T04:32:16.313Z,7.05
2019-04-16T04:34:48.572Z,7.02
2019-04-16T04:37:17.481Z,7.01
2019-04-16T04:39:47.149Z,7.00
2019-04-16T04:42:19.364Z,7.04
2019-04-16T04:44:48.794Z,7.07
2019-04-16T04:47:20.200Z,7.05
2019-04-16T04:49:51.093Z,6.98
2019-04-16T04:52:20.751Z,6.96
2019-04-16T04:54:51.399Z,6.95
2019-04-16T04:57:21.802Z,6.95
2019-04-16T04:59:51.582Z,6.87
2019-04-16T05:02:22.275Z,6.85
2019-04-16T05:04:57.133Z,6.79
2019-04-16T05:07:29.071Z,6.80
2019-04-16T05:09:58.173Z,6.82
2019-04-16T05:12:27.839Z,6.85
2019-04-16T05:14:58.777Z,6.94
2019-04-16T05:17:30.012Z,7.01
2019-04-16T05:19:59.806Z,7.07
2019-04-16T05:22:33.005Z,7.05
2019-04-16T05:25:01.583Z,7.06
2019-04-16T05:27:31.009Z,7.02
2019-04-16T05:29:59.344Z,7.02
2019-04-16T05:32:32.734Z,6.98
2019-04-16T05:34:59.433Z,6.99
2019-04-16T05:37:31.949Z,7.00
2019-04-16T05:40:01.617Z,7.05
2019-04-16T05:42:31.282Z,7.11
2019-04-16T05:45:02.490Z,7.34
2019-04-16T05:47:32.537Z,7.34
2019-04-16T05:50:02.307Z,7.40
2019-04-16T05:52:32.294Z,7.46
2019-04-16T05:55:21.456Z,7.48
2019-04-16T05:57:51.750Z,7.53
2019-04-16T06:00:30.899Z,7.62
2019-04-16T06:03:00.609Z,7.63
2019-04-16T06:05:30.271Z,7.65
2019-04-16T06:08:10.123Z,7.71
2019-04-16T06:10:40.155Z,7.77
2019-04-16T06:13:27.523Z,7.85
2019-04-16T06:16:12.533Z,7.93
2019-04-16T06:18:52.942Z,8.08
2019-04-16T06:21:39.810Z,8.33
2019-04-16T06:24:35.863Z,8.50
2019-04-16T06:27:28.459Z,8.71
2019-04-16T06:30:14.932Z,8.85
2019-04-16T06:32:56.816Z,8.87
2019-04-16T06:35:44.348Z,8.94
2019-04-16T06:38:16.952Z,9.00
2019-04-16T06:41:03.394Z,9.10
2019-04-16T06:43:37.653Z,9.22
2019-04-16T06:46:25.098Z,9.36
2019-04-16T06:49:14.351Z,9.43
2019-04-16T06:52:03.543Z,9.59
2019-04-16T06:54:50.863Z,9.75
2019-04-16T06:57:30.941Z,9.92
2019-04-16T07:00:18.916Z,10.17
2019-04-16T07:03:26.166Z,10.35
2019-04-16T07:06:11.949Z,10.50
2019-04-16T07:08:55.114Z,10.67
2019-04-16T07:11:24.928Z,10.89
2019-04-16T07:13:54.721Z,11.22
2019-04-16T07:16:27.904Z,11.46
2019-04-16T07:18:53.514Z,11.73
2019-04-16T07:21:22.050Z,11.88
2019-04-16T07:23:55.972Z,12.03
2019-04-16T07:26:20.615Z,12.13
2019-04-16T07:28:59.017Z,12.39
2019-04-16T07:31:52.134Z,12.57
2019-04-16T07:34:44.413Z,12.81
2019-04-16T07:37:33.066Z,13.41
2019-04-16T07:40:10.543Z,13.41
2019-04-16T07:43:15.579Z,13.60
2019-04-16T07:45:49.395Z,13.81
2019-04-16T07:48:36.152Z,14.09
2019-04-16T07:51:17.028Z,14.26
2019-04-16T07:54:18.807Z,14.42
2019-04-16T07:56:50.689Z,14.50
2019-04-16T07:59:20.759Z,14.71
2019-04-16T08:01:50.721Z,14.88
2019-04-16T08:04:28.709Z,15.19
2019-04-16T08:06:52.993Z,15.39
2019-04-16T08:09:22.921Z,15.67
2019-04-16T08:11:52.842Z,15.71
2019-04-16T08:14:22.740Z,15.92
2019-04-16T08:16:52.397Z,16.09
2019-04-16T08:19:35.761Z,16.32
2019-04-16T08:21:53.738Z,16.39
2019-04-16T08:24:28.950Z,16.49
2019-04-16T08:26:58.723Z,16.71
2019-04-16T08:29:28.406Z,16.86
2019-04-16T08:31:58.072Z,16.79
2019-04-16T08:34:27.750Z,16.88
2019-04-16T08:36:57.414Z,16.94
2019-04-16T08:39:27.094Z,17.03
2019-04-16T08:41:56.779Z,17.19
2019-04-16T08:44:26.640Z,17.30
2019-04-16T08:46:58.639Z,17.32
2019-04-16T08:49:28.106Z,17.36
2019-04-16T08:51:58.148Z,17.47
2019-04-16T08:54:28.045Z,17.68
2019-04-16T08:56:56.854Z,17.68
2019-04-16T08:59:25.693Z,17.73
2019-04-16T09:01:55.246Z,17.91
2019-04-16T09:04:25.394Z,18.07
2019-04-16T09:06:54.381Z,18.16
2019-04-16T09:09:24.678Z,18.44
2019-04-16T09:11:53.936Z,18.48
2019-04-16T09:14:25.679Z,18.59
2019-04-16T09:16:53.313Z,18.73
2019-04-16T09:19:22.367Z,18.66
2019-04-16T09:21:51.170Z,18.86
2019-04-16T09:24:18.597Z,18.85
2019-04-16T09:26:46.132Z,18.88
2019-04-16T09:29:13.839Z,19.10
2019-04-16T09:31:41.266Z,19.09
2019-04-16T09:34:08.750Z,19.16
2019-04-16T09:36:36.175Z,19.25
2019-04-16T09:39:03.623Z,19.27
2019-04-16T09:41:38.774Z,19.38
2019-04-16T09:44:08.979Z,19.48
2019-04-16T09:46:53.839Z,19.64
2019-04-16T09:49:10.213Z,19.73
2019-04-16T09:51:40.187Z,19.89
2019-04-16T09:54:13.410Z,19.57
2019-04-16T09:56:41.735Z,19.61
2019-04-16T09:59:31.097Z,19.75
2019-04-16T10:02:13.006Z,19.89
2019-04-16T10:04:42.828Z,19.99
2019-04-16T10:07:12.826Z,20.10
2019-04-16T10:09:42.586Z,20.07
2019-04-16T10:12:12.862Z,20.17
2019-04-16T10:14:42.599Z,20.22
2019-04-16T10:17:12.347Z,20.36
2019-04-16T10:19:43.296Z,20.36
2019-04-16T10:22:13.892Z,20.35
2019-04-16T10:25:01.484Z,20.25
2019-04-16T10:27:37.101Z,20.41
2019-04-16T10:30:17.399Z,20.18
2019-04-16T10:32:48.565Z,20.21
2019-04-16T10:35:18.772Z,20.22
2019-04-16T10:37:48.496Z,20.14
2019-04-16T10:40:26.543Z,20.34
2019-04-16T10:43:14.810Z,20.29
2019-04-16T10:45:52.909Z,20.31
2019-04-16T10:48:34.678Z,20.44
2019-04-16T10:51:41.511Z,20.58
2019-04-16T10:54:19.379Z,20.74
2019-04-16T10:57:15.270Z,20.96
2019-04-16T10:59:51.514Z,21.12
2019-04-16T11:02:44.195Z,21.09
2019-04-16T11:05:35.904Z,20.99
2019-04-16T11:08:07.482Z,21.12
2019-04-16T11:10:37.260Z,21.30
2019-04-16T11:13:09.302Z,21.41
2019-04-16T11:15:39.046Z,21.45
2019-04-16T11:18:08.706Z,21.46
2019-04-16T11:20:38.513Z,21.58
2019-04-16T11:23:08.772Z,21.62
2019-04-16T11:25:38.564Z,21.66
2019-04-16T11:28:08.638Z,21.80
2019-04-16T11:30:43.431Z,21.83
2019-04-16T11:33:13.106Z,21.78
2019-04-16T11:35:42.946Z,21.91
2019-04-16T11:38:12.616Z,22.04
2019-04-16T11:40:41.318Z,22.10
2019-04-16T11:43:11.556Z,22.21
2019-04-16T11:45:41.290Z,22.28
2019-04-16T11:48:11.223Z,22.27
2019-04-16T11:50:41.191Z,22.22
2019-04-16T11:53:10.925Z,22.24
2019-04-16T11:55:40.631Z,22.23
2019-04-16T11:58:29.313Z,22.38
2019-04-16T12:01:04.803Z,22.56
2019-04-16T12:03:46.837Z,22.68
2019-04-16T12:06:34.283Z,22.81
2019-04-16T12:09:29.382Z,22.98
2019-04-16T12:12:18.216Z,22.78
2019-04-16T12:15:01.262Z,22.86
2019-04-16T12:17:42.765Z,23.00
2019-04-16T12:20:21.816Z,22.98
2019-04-16T12:23:02.196Z,23.10
2019-04-16T12:25:50.836Z,23.10
2019-04-16T12:28:30.778Z,23.09
2019-04-16T12:31:05.587Z,23.08
2019-04-16T12:33:56.668Z,23.14
2019-04-16T12:36:52.122Z,23.21
2019-04-16T12:39:46.886Z,23.03
2019-04-16T12:42:20.664Z,22.60
2019-04-16T12:44:52.451Z,22.62
2019-04-16T12:47:37.676Z,22.77
2019-04-16T12:50:24.066Z,22.85
2019-04-16T12:53:12.940Z,22.93
2019-04-16T12:56:07.367Z,22.84
2019-04-16T12:58:58.791Z,22.71
2019-04-16T13:02:05.822Z,22.89
2019-04-16T13:04:50.039Z,22.77
2019-04-16T13:07:30.452Z,22.87
2019-04-16T13:10:07.433Z,23.01
2019-04-16T13:12:54.778Z,23.08
2019-04-16T13:15:46.599Z,22.99
2019-04-16T13:18:41.247Z,22.86
2019-04-16T13:21:19.444Z,22.91
2019-04-16T13:23:56.446Z,23.01
2019-04-16T13:26:45.694Z,22.94
2019-04-16T13:29:29.017Z,22.97
2019-04-16T13:31:54.727Z,23.07
2019-04-16T13:34:25.371Z,23.15
2019-04-16T13:36:59.330Z,23.28
2019-04-16T13:39:45.744Z,23.33
2019-04-16T13:42:15.514Z,23.37
2019-04-16T13:44:48.499Z,23.43
2019-04-16T13:47:18.510Z,23.35
2019-04-16T13:50:03.304Z,23.12
2019-04-16T13:52:33.486Z,23.10
2019-04-16T13:55:16.675Z,23.06
2019-04-16T13:57:54.930Z,22.94
2019-04-16T14:00:33.571Z,23.06
2019-04-16T14:03:09.378Z,22.97
2019-04-16T14:05:42.714Z,22.90
2019-04-16T14:08:11.542Z,22.88
2019-04-16T14:10:43.346Z,22.59
2019-04-16T14:13:14.063Z,22.64
2019-04-16T14:15:45.128Z,22.72
2019-04-16T14:18:14.768Z,22.62
2019-04-16T14:20:44.488Z,22.49
2019-04-16T14:23:15.448Z,22.29
2019-04-16T14:25:45.105Z,22.33
2019-04-16T14:28:17.926Z,22.32
2019-04-16T14:30:49.137Z,22.33
2019-04-16T14:33:27.106Z,22.25
2019-04-16T14:35:57.968Z,22.19
2019-04-16T14:38:36.748Z,22.13
2019-04-16T14:41:06.434Z,22.16
2019-04-16T14:43:39.159Z,22.18
2019-04-16T14:46:09.785Z,22.15
2019-04-16T14:48:45.488Z,22.05
2019-04-16T14:51:11.161Z,21.93
2019-04-16T14:53:56.842Z,22.00
2019-04-16T14:56:41.199Z,22.04
2019-04-16T14:59:34.461Z,21.90
2019-04-16T15:02:07.870Z,21.90
2019-04-16T15:04:57.775Z,21.97
2019-04-16T15:07:43.955Z,22.00
2019-04-16T15:10:35.174Z,21.95
2019-04-16T15:13:26.994Z,21.88
2019-04-16T15:16:10.813Z,21.82
2019-04-16T15:18:50.078Z,21.78
2019-04-16T15:21:43.976Z,21.79
2019-04-16T15:24:22.678Z,21.80
2019-04-16T15:27:28.227Z,21.72
2019-04-16T15:30:15.702Z,21.70
2019-04-16T15:33:07.318Z,21.50
2019-04-16T15:35:57.298Z,21.46
2019-04-16T15:38:45.863Z,21.28
2019-04-16T15:41:22.506Z,21.31
2019-04-16T15:44:09.985Z,21.31
2019-04-16T15:46:57.643Z,21.27
2019-04-16T15:49:45.026Z,21.20
2019-04-16T15:52:32.272Z,21.18
2019-04-16T15:55:14.147Z,21.11
2019-04-16T15:58:04.711Z,21.11
2019-04-16T16:00:46.144Z,21.05
2019-04-16T16:03:39.402Z,21.03
2019-04-16T16:06:12.498Z,20.92
2019-04-16T16:08:52.719Z,20.82
2019-04-16T16:11:26.861Z,20.80
2019-04-16T16:14:00.281Z,20.73
2019-04-16T16:16:41.767Z,20.72
2019-04-16T16:19:03.099Z,20.71
2019-04-16T16:21:33.755Z,20.69
2019-04-16T16:24:07.956Z,20.64
2019-04-16T16:26:35.234Z,20.62
2019-04-16T16:29:06.392Z,20.57
2019-04-16T16:31:36.299Z,20.48
2019-04-16T16:34:08.707Z,20.40
2019-04-16T16:36:40.453Z,20.29
2019-04-16T16:39:08.012Z,20.24
2019-04-16T16:41:38.299Z,20.16
2019-04-16T16:44:06.970Z,20.09
2019-04-16T16:47:11.695Z,20.03
2019-04-16T16:49:41.700Z,19.92
2019-04-16T16:52:31.149Z,19.85
2019-04-16T16:55:02.553Z,19.76
2019-04-16T16:57:44.623Z,19.67
2019-04-16T17:00:24.023Z,19.63
2019-04-16T17:03:13.306Z,19.60
2019-04-16T17:05:43.167Z,19.57
2019-04-16T17:08:13.414Z,19.52
2019-04-16T17:10:44.243Z,19.50
2019-04-16T17:13:17.020Z,19.45
2019-04-16T17:15:45.838Z,19.37
2019-04-16T17:18:15.819Z,19.31
2019-04-16T17:20:50.037Z,19.25
2019-04-16T17:23:20.025Z,19.17
2019-04-16T17:25:51.850Z,19.17
2019-04-16T17:28:21.938Z,19.10
2019-04-16T17:30:52.059Z,19.09
2019-04-16T17:33:22.674Z,19.01
2019-04-16T17:35:52.961Z,18.97
2019-04-16T17:38:23.798Z,18.98
2019-04-16T17:40:59.857Z,18.93
2019-04-16T17:43:41.261Z,18.87
2019-04-16T17:46:29.008Z,18.80
2019-04-16T17:49:19.616Z,18.73
2019-04-16T17:52:19.489Z,18.61
2019-04-16T17:55:06.827Z,18.55
2019-04-16T17:57:48.292Z,18.49
2019-04-16T18:00:34.683Z,18.44
2019-04-16T18:03:16.274Z,18.41
2019-04-16T18:05:59.822Z,18.35
2019-04-16T18:09:01.927Z,18.31
2019-04-16T18:11:44.720Z,18.22
2019-04-16T18:14:48.706Z,18.15
2019-04-16T18:17:47.001Z,18.07
2019-04-16T18:20:25.652Z,18.00
2019-04-16T18:23:20.142Z,17.89
2019-04-16T18:26:07.818Z,17.79
2019-04-16T18:28:44.038Z,17.70
2019-04-16T18:31:48.583Z,17.60
2019-04-16T18:34:33.183Z,17.53
2019-04-16T18:37:29.171Z,17.48
2019-04-16T18:40:08.941Z,17.44
2019-04-16T18:42:52.014Z,17.34
2019-04-16T18:45:39.625Z,17.29
2019-04-16T18:48:15.364Z,17.23
2019-04-16T18:50:45.703Z,17.08
2019-04-16T18:53:16.479Z,17.03
2019-04-16T18:55:46.723Z,16.90
2019-04-16T18:58:16.690Z,16.79
2019-04-16T19:00:49.032Z,16.71
2019-04-16T19:03:19.041Z,16.68
2019-04-16T19:05:48.957Z,16.64
2019-04-16T19:08:18.946Z,16.59
2019-04-16T19:10:49.355Z,16.53
2019-04-16T19:13:20.449Z,16.45
2019-04-16T19:15:50.448Z,16.42
2019-04-16T19:18:20.705Z,16.39
2019-04-16T19:20:52.568Z,16.30
2019-04-16T19:23:22.866Z,16.24
2019-04-16T19:25:55.403Z,16.19
2019-04-16T19:28:24.906Z,16.13
2019-04-16T19:30:55.159Z,16.07
2019-04-16T19:33:25.016Z,16.02
2019-04-16T19:35:57.678Z,15.95
2019-04-16T19:38:27.737Z,15.87
2019-04-16T19:41:06.297Z,15.82
2019-04-16T19:43:39.118Z,15.75
2019-04-16T19:46:09.006Z,15.66
2019-04-16T19:48:38.674Z,15.59
2019-04-16T19:51:09.064Z,15.55
2019-04-16T19:53:37.736Z,15.46
2019-04-16T19:56:06.124Z,15.42
2019-04-16T19:58:40.635Z,15.39
2019-04-16T20:01:12.025Z,15.31
2019-04-16T20:03:43.525Z,15.25
2019-04-16T20:06:13.628Z,15.22
2019-04-16T20:08:52.251Z,15.18
2019-04-16T20:11:25.071Z,15.15
2019-04-16T20:13:54.967Z,15.12
2019-04-16T20:16:30.750Z,15.10
2019-04-16T20:19:15.061Z,15.06
2019-04-16T20:21:56.408Z,15.05
2019-04-16T20:24:26.103Z,15.02
2019-04-16T20:26:55.978Z,14.97
2019-04-16T20:29:25.647Z,14.89
2019-04-16T20:31:55.622Z,14.87
2019-04-16T20:34:25.650Z,14.84
2019-04-16T20:36:56.784Z,14.84
2019-04-16T20:39:26.983Z,14.83
2019-04-16T20:41:59.255Z,14.79
2019-04-16T20:44:28.377Z,14.75
2019-04-16T20:47:02.332Z,14.70
2019-04-16T20:49:31.243Z,14.64
2019-04-16T20:52:02.530Z,14.54
2019-04-16T20:54:33.527Z,14.46
2019-04-16T20:57:03.272Z,14.41
2019-04-16T20:59:36.047Z,14.33
2019-04-16T21:02:05.274Z,14.33
2019-04-16T21:04:35.013Z,14.30
2019-04-16T21:07:05.019Z,14.28
2019-04-16T21:09:34.917Z,14.26
2019-04-16T21:12:12.882Z,14.21
2019-04-16T21:14:41.294Z,14.22
2019-04-16T21:17:19.469Z,14.22
2019-04-16T21:19:50.181Z,14.18
2019-04-16T21:22:20.096Z,14.13
2019-04-16T21:24:50.088Z,14.09
2019-04-16T21:27:21.146Z,14.10
2019-04-16T21:29:51.120Z,14.04
2019-04-16T21:32:49.807Z,14.04
2019-04-16T21:35:48.036Z,14.02
2019-04-16T21:38:23.937Z,13.97
2019-04-16T21:40:56.379Z,13.91
2019-04-16T21:43:26.025Z,13.89
2019-04-16T21:45:55.701Z,13.87
2019-04-16T21:48:27.036Z,13.85
2019-04-16T21:50:57.129Z,13.79
2019-04-16T21:53:27.943Z,13.74
2019-04-16T21:55:58.579Z,13.69
2019-04-16T21:58:28.264Z,13.65
2019-04-16T22:01:05.132Z,13.61
2019-04-16T22:03:41.759Z,13.57
2019-04-16T22:06:07.659Z,13.53
2019-04-16T22:08:37.410Z,13.48
2019-04-16T22:11:08.531Z,13.42
2019-04-16T22:13:38.481Z,13.36
2019-04-16T22:16:08.488Z,13.33
2019-04-16T22:18:41.603Z,13.33
2019-04-16T22:21:11.171Z,13.27
2019-04-16T22:23:40.976Z,13.27
2019-04-16T22:26:11.119Z,13.25
2019-04-16T22:28:44.198Z,13.23
2019-04-16T22:31:12.727Z,13.15
2019-04-16T22:33:42.388Z,13.11
2019-04-16T22:36:12.065Z,13.08
2019-04-16T22:38:45.376Z,13.08
2019-04-16T22:41:23.539Z,13.04
2019-04-16T22:44:28.340Z,12.97
2019-04-16T22:47:03.182Z,12.89
2019-04-16T22:49:32.977Z,12.83
2019-04-16T22:52:02.858Z,12.80
2019-04-16T22:54:32.765Z,12.75
2019-04-16T22:57:06.913Z,12.71
2019-04-16T22:59:39.356Z,12.66
2019-04-16T23:02:13.794Z,12.57
2019-04-16T23:04:43.834Z,12.49
2019-04-16T23:07:13.507Z,12.39
2019-04-16T23:09:45.735Z,12.35
2019-04-16T23:12:14.777Z,12.31
2019-04-16T23:14:44.684Z,12.27
2019-04-16T23:17:15.930Z,12.22
2019-04-16T23:19:45.835Z,12.19
2019-04-16T23:22:15.536Z,12.17
2019-04-16T23:24:45.413Z,12.14
2019-04-16T23:27:15.171Z,12.10
2019-04-16T23:29:47.544Z,12.06
2019-04-16T23:32:16.556Z,12.03
2019-04-16T23:34:46.450Z,12.00
2019-04-16T23:37:16.138Z,11.96
2019-04-16T23:39:45.842Z,11.93
2019-04-16T23:42:18.767Z,11.89
2019-04-16T23:45:09.284Z,11.87
2019-04-16T23:47:48.902Z,11.84
2019-04-16T23:50:26.686Z,11.80
2019-04-16T23:53:12.496Z,11.77
2019-04-16T23:55:58.378Z,11.75
2019-04-16T23:58:34.042Z,11.72
